Swartz Creek, Michigan
Current Conditions -  °F | °C
As of 9:11 AM on Saturday 25 Oct 2014 (Local Time) from KFNT Reporting Station
Haze Haze  
Wind Chill: 55°   Ceiling: 1400
Heat Index: 55°   Visibility: 6mi
Dew Point: 49°   Wind: 8mph
Humidity: 80%   Direction: 240°WSW
Pressure: 29.81"   Gusts: NA
Location:  42.96°N, 83.83°W
Report Text: KFNT 251311Z 24007KT 6SM HZ BKN014 13/09 A2981 RMK AO2 T01280094
Loading
Personal Weather Stations






























Interactive Weather Map
Tropical Storm Tracking
New forecast layout! Learn more

10-Day Weather Forecast

Advertisements
Track Severe Weather on mobile